createdAt,value
2016-03-20T00:00:17.492Z,1015.65
2016-03-20T00:01:17.495Z,1015.62
2016-03-20T00:02:17.498Z,1015.61
2016-03-20T00:03:17.501Z,1015.58
2016-03-20T00:04:17.503Z,1015.57
2016-03-20T00:05:17.506Z,1015.59
2016-03-20T00:06:17.524Z,1015.56
2016-03-20T00:07:17.527Z,1015.56
2016-03-20T00:08:17.529Z,1015.54
2016-03-20T00:09:17.532Z,1015.57
2016-03-20T00:10:17.550Z,1015.56
2016-03-20T00:11:17.553Z,1015.57
2016-03-20T00:12:17.555Z,1015.6
2016-03-20T00:13:17.558Z,1015.56
2016-03-20T00:14:17.576Z,1015.58
2016-03-20T00:15:17.580Z,1015.61
2016-03-20T00:16:17.582Z,1015.58
2016-03-20T00:17:17.585Z,1015.6
2016-03-20T00:18:17.587Z,1015.62
2016-03-20T00:19:17.606Z,1015.64
2016-03-20T00:20:17.608Z,1015.63
2016-03-20T00:21:17.611Z,1015.61
2016-03-20T00:22:17.613Z,1015.57
2016-03-20T00:23:17.632Z,1015.64
2016-03-20T00:24:17.634Z,1015.6
2016-03-20T00:25:17.637Z,1015.59
2016-03-20T00:26:17.640Z,1015.56
2016-03-20T00:27:17.643Z,1015.56
2016-03-20T00:28:17.661Z,1015.55
2016-03-20T00:29:17.679Z,1015.58
2016-03-20T00:30:17.667Z,1015.56
2016-03-20T00:31:17.669Z,1015.57
2016-03-20T00:32:17.672Z,1015.57
2016-03-20T00:33:17.690Z,1015.58
2016-03-20T00:34:17.692Z,1015.55
2016-03-20T00:35:17.695Z,1015.55
2016-03-20T00:36:17.714Z,1015.54
2016-03-20T00:37:17.717Z,1015.52
2016-03-20T00:38:17.719Z,1015.52
2016-03-20T00:39:17.722Z,1015.5
2016-03-20T00:40:17.741Z,1015.51
2016-03-20T00:41:17.744Z,1015.51
2016-03-20T00:42:17.746Z,1015.52
2016-03-20T00:43:17.749Z,1015.51
2016-03-20T00:44:17.751Z,1015.53
2016-03-20T00:45:17.769Z,1015.5
2016-03-20T00:46:17.772Z,1015.53
2016-03-20T00:47:17.774Z,1015.5
2016-03-20T00:48:17.778Z,1015.48
2016-03-20T00:49:17.780Z,1015.5
2016-03-20T00:50:17.799Z,1015.47
2016-03-20T00:51:17.801Z,1015.48
2016-03-20T00:52:17.804Z,1015.49
2016-03-20T00:53:17.806Z,1015.51
2016-03-20T00:54:17.824Z,1015.49
2016-03-20T00:55:17.827Z,1015.47
2016-03-20T00:56:17.830Z,1015.5
2016-03-20T00:57:17.832Z,1015.51
2016-03-20T00:58:17.835Z,1015.5
2016-03-20T00:59:17.854Z,1015.51
2016-03-20T01:00:17.857Z,1015.48
2016-03-20T01:01:17.859Z,1015.5
2016-03-20T01:02:17.862Z,1015.5
2016-03-20T01:03:17.865Z,1015.53
2016-03-20T01:04:17.883Z,1015.51
2016-03-20T01:05:17.886Z,1015.54
2016-03-20T01:06:17.889Z,1015.53
2016-03-20T01:07:17.892Z,1015.51
2016-03-20T01:08:17.894Z,1015.45
2016-03-20T01:09:17.911Z,1015.45
2016-03-20T01:10:17.915Z,1015.41
2016-03-20T01:11:17.917Z,1015.38
2016-03-20T01:12:17.920Z,1015.39
2016-03-20T01:13:17.938Z,1015.41
2016-03-20T01:14:17.941Z,1015.4
2016-03-20T01:15:17.944Z,1015.36
2016-03-20T01:16:17.946Z,1015.36
2016-03-20T01:17:17.965Z,1015.32
2016-03-20T01:18:17.968Z,1015.3
2016-03-20T01:19:17.971Z,1015.28
2016-03-20T01:20:17.973Z,1015.28
2016-03-20T01:21:17.976Z,1015.25
2016-03-20T01:22:17.993Z,1015.26
2016-03-20T01:23:17.996Z,1015.26
2016-03-20T01:24:17.999Z,1015.25
2016-03-20T01:25:18.002Z,1015.27
2016-03-20T01:26:18.005Z,1015.26
2016-03-20T01:27:18.023Z,1015.29
2016-03-20T01:28:18.026Z,1015.27
2016-03-20T01:29:18.029Z,1015.21
2016-03-20T01:30:18.032Z,1015.17
2016-03-20T01:31:18.065Z,1015.16
2016-03-20T01:32:18.052Z,1015.2
2016-03-20T01:33:18.055Z,1015.19
2016-03-20T01:34:18.073Z,1015.16
2016-03-20T01:35:18.059Z,1015.14
2016-03-20T01:36:18.078Z,1015.14
2016-03-20T01:37:18.081Z,1015.15
2016-03-20T01:38:18.084Z,1015.18
2016-03-20T01:39:18.102Z,1015.12
2016-03-20T01:40:18.106Z,1015.13
2016-03-20T01:41:18.108Z,1015.08
2016-03-20T01:42:18.111Z,1015.05
2016-03-20T01:43:18.113Z,1015.08
2016-03-20T01:44:18.131Z,1015.07
2016-03-20T01:45:18.133Z,1015.04
2016-03-20T01:46:18.136Z,1015.04
2016-03-20T01:47:18.139Z,1015
2016-03-20T01:48:18.157Z,1015.01
2016-03-20T01:49:18.144Z,1014.97
2016-03-20T01:50:18.163Z,1014.98
2016-03-20T01:51:18.166Z,1014.92
2016-03-20T01:52:18.169Z,1014.93
2016-03-20T01:53:18.187Z,1014.92
2016-03-20T01:54:18.190Z,1014.91
2016-03-20T01:55:18.193Z,1014.89
2016-03-20T01:56:18.195Z,1014.88
2016-03-20T01:57:18.197Z,1014.91
2016-03-20T01:58:18.216Z,1014.89
2016-03-20T01:59:18.218Z,1014.88
2016-03-20T02:00:18.221Z,1014.84
2016-03-20T02:01:18.223Z,1014.82
2016-03-20T02:02:18.226Z,1014.77
2016-03-20T02:03:18.245Z,1014.79
2016-03-20T02:04:18.248Z,1014.78
2016-03-20T02:05:18.251Z,1014.79
2016-03-20T02:06:18.253Z,1014.81
2016-03-20T02:07:18.255Z,1014.81
2016-03-20T02:08:18.273Z,1014.76
2016-03-20T02:09:18.276Z,1014.76
2016-03-20T02:10:18.279Z,1014.75
2016-03-20T02:11:18.282Z,1014.71
2016-03-20T02:12:18.301Z,1014.71
2016-03-20T02:13:18.303Z,1014.73
2016-03-20T02:14:18.306Z,1014.72
2016-03-20T02:15:18.308Z,1014.7
2016-03-20T02:16:18.311Z,1014.7
2016-03-20T02:17:18.330Z,1014.7
2016-03-20T02:18:18.332Z,1014.7
2016-03-20T02:19:18.335Z,1014.69
2016-03-20T02:20:18.337Z,1014.69
2016-03-20T02:21:18.340Z,1014.66
2016-03-20T02:22:18.358Z,1014.66
2016-03-20T02:23:18.377Z,1014.66
2016-03-20T02:24:18.364Z,1014.66
2016-03-20T02:25:18.382Z,1014.67
2016-03-20T02:26:18.385Z,1014.68
2016-03-20T02:27:18.388Z,1014.65
2016-03-20T02:28:18.421Z,1014.62
2016-03-20T02:29:18.393Z,1014.59
2016-03-20T02:30:18.412Z,1014.58
2016-03-20T02:31:18.414Z,1014.55
2016-03-20T02:32:18.417Z,1014.55
2016-03-20T02:33:18.420Z,1014.53
2016-03-20T02:34:18.422Z,1014.55
2016-03-20T02:35:18.456Z,1014.58
2016-03-20T02:36:18.443Z,1014.58
2016-03-20T02:37:18.446Z,1014.56
2016-03-20T02:38:18.448Z,1014.54
2016-03-20T02:39:18.451Z,1014.52
2016-03-20T02:40:18.470Z,1014.51
2016-03-20T02:41:18.472Z,1014.49
2016-03-20T02:42:18.475Z,1014.49
2016-03-20T02:43:18.477Z,1014.51
2016-03-20T02:44:18.480Z,1014.5
2016-03-20T02:45:18.498Z,1014.52
2016-03-20T02:46:18.500Z,1014.53
2016-03-20T02:47:18.504Z,1014.49
2016-03-20T02:48:18.506Z,1014.5
2016-03-20T02:49:18.509Z,1014.53
2016-03-20T02:50:18.527Z,1014.5
2016-03-20T02:51:18.530Z,1014.49
2016-03-20T02:52:18.533Z,1014.5
2016-03-20T02:53:18.535Z,1014.51
2016-03-20T02:54:18.554Z,1014.51
2016-03-20T02:55:18.557Z,1014.47
2016-03-20T02:56:18.560Z,1014.5
2016-03-20T02:57:18.562Z,1014.49
2016-03-20T02:58:18.565Z,1014.49
2016-03-20T02:59:18.582Z,1014.46
2016-03-20T03:00:18.586Z,1014.42
2016-03-20T03:01:18.588Z,1014.43
2016-03-20T03:02:18.590Z,1014.43
2016-03-20T03:03:18.610Z,1014.43
2016-03-20T03:04:18.612Z,1014.44
2016-03-20T03:05:18.615Z,1014.45
2016-03-20T03:06:18.617Z,1014.44
2016-03-20T03:07:18.627Z,1014.46
2016-03-20T03:08:18.630Z,1014.42
2016-03-20T03:09:18.633Z,1014.43
2016-03-20T03:10:18.650Z,1014.48
2016-03-20T03:11:18.653Z,1014.48
2016-03-20T03:12:18.656Z,1014.46
2016-03-20T03:13:18.658Z,1014.48
2016-03-20T03:14:18.661Z,1014.43
2016-03-20T03:15:18.680Z,1014.42
2016-03-20T03:16:18.698Z,1014.41
2016-03-20T03:17:18.685Z,1014.42
2016-03-20T03:18:18.688Z,1014.42
2016-03-20T03:19:18.706Z,1014.42
2016-03-20T03:20:18.709Z,1014.34
2016-03-20T03:21:18.712Z,1014.33
2016-03-20T03:22:18.714Z,1014.34
2016-03-20T03:23:18.717Z,1014.32
2016-03-20T03:24:18.735Z,1014.33
2016-03-20T03:25:18.737Z,1014.39
2016-03-20T03:26:18.741Z,1014.35
2016-03-20T03:27:18.743Z,1014.35
2016-03-20T03:28:18.746Z,1014.29
2016-03-20T03:29:18.764Z,1014.32
2016-03-20T03:30:18.767Z,1014.31
2016-03-20T03:31:18.769Z,1014.35
2016-03-20T03:32:18.788Z,1014.32
2016-03-20T03:33:18.775Z,1014.34
2016-03-20T03:34:18.793Z,1014.31
2016-03-20T03:35:18.795Z,1014.31
2016-03-20T03:36:18.798Z,1014.32
2016-03-20T03:37:18.801Z,1014.29
2016-03-20T03:38:18.820Z,1014.31
2016-03-20T03:39:18.822Z,1014.32
2016-03-20T03:40:18.824Z,1014.33
2016-03-20T03:41:18.828Z,1014.3
2016-03-20T03:42:18.830Z,1014.34
2016-03-20T03:43:18.833Z,1014.33
2016-03-20T03:44:18.851Z,1014.32
2016-03-20T03:45:18.854Z,1014.34
2016-03-20T03:46:18.872Z,1014.3
2016-03-20T03:47:18.875Z,1014.35
2016-03-20T03:48:18.877Z,1014.27
2016-03-20T03:49:18.880Z,1014.29
2016-03-20T03:50:18.883Z,1014.32
2016-03-20T03:51:18.885Z,1014.34
2016-03-20T03:52:18.905Z,1014.36
2016-03-20T03:53:18.907Z,1014.36
2016-03-20T03:54:18.910Z,1014.37
2016-03-20T03:55:18.912Z,1014.36
2016-03-20T03:56:18.915Z,1014.35
2016-03-20T03:57:18.934Z,1014.34
2016-03-20T03:58:18.936Z,1014.34
2016-03-20T03:59:18.939Z,1014.34
2016-03-20T04:00:18.941Z,1014.31
2016-03-20T04:01:18.945Z,1014.33
2016-03-20T04:02:18.962Z,1014.36
2016-03-20T04:03:18.970Z,1014.35
2016-03-20T04:04:18.972Z,1014.3
2016-03-20T04:05:18.975Z,1014.31
2016-03-20T04:06:18.978Z,1014.26
2016-03-20T04:07:18.980Z,1014.27
2016-03-20T04:08:18.999Z,1014.29
2016-03-20T04:09:19.001Z,1014.33
2016-03-20T04:10:19.004Z,1014.3
2016-03-20T04:11:19.008Z,1014.3
2016-03-20T04:12:19.010Z,1014.3
2016-03-20T04:13:19.027Z,1014.3
2016-03-20T04:14:19.031Z,1014.32
2016-03-20T04:15:19.033Z,1014.33
2016-03-20T04:16:19.035Z,1014.27
2016-03-20T04:17:19.054Z,1014.3
2016-03-20T04:18:19.057Z,1014.29
2016-03-20T04:19:19.059Z,1014.3
2016-03-20T04:20:19.063Z,1014.3
2016-03-20T04:21:19.065Z,1014.34
2016-03-20T04:22:19.083Z,1014.37
2016-03-20T04:23:19.087Z,1014.36
2016-03-20T04:24:19.089Z,1014.34
2016-03-20T04:25:19.106Z,1014.34
2016-03-20T04:26:19.095Z,1014.32
2016-03-20T04:27:19.102Z,1014.37
2016-03-20T04:28:19.092Z,1014.38
2016-03-20T04:29:19.082Z,1014.37
2016-03-20T04:30:19.088Z,1014.39
2016-03-20T04:31:19.062Z,1014.35
2016-03-20T04:32:19.074Z,1014.4
2016-03-20T04:33:19.072Z,1014.38
2016-03-20T04:34:19.071Z,1014.37
2016-03-20T04:35:19.085Z,1014.37
2016-03-20T04:36:19.083Z,1014.35
2016-03-20T04:37:19.084Z,1014.33
2016-03-20T04:38:19.085Z,1014.35
2016-03-20T04:39:19.086Z,1014.33
2016-03-20T04:40:19.102Z,1014.33
2016-03-20T04:41:19.088Z,1014.32
2016-03-20T04:42:19.105Z,1014.31
2016-03-20T04:43:19.107Z,1014.32
2016-03-20T04:44:19.109Z,1014.33
2016-03-20T04:45:19.110Z,1014.34
2016-03-20T04:46:19.128Z,1014.35
2016-03-20T04:47:19.131Z,1014.36
2016-03-20T04:48:19.134Z,1014.35
2016-03-20T04:49:19.136Z,1014.31
2016-03-20T04:50:19.154Z,1014.35
2016-03-20T04:51:19.157Z,1014.35
2016-03-20T04:52:19.159Z,1014.37
2016-03-20T04:53:19.162Z,1014.4
2016-03-20T04:54:19.165Z,1014.4
2016-03-20T04:55:19.183Z,1014.4
2016-03-20T04:56:19.187Z,1014.46
2016-03-20T04:57:19.189Z,1014.42
2016-03-20T04:58:19.191Z,1014.43
2016-03-20T04:59:19.195Z,1014.45
2016-03-20T05:00:19.213Z,1014.46
2016-03-20T05:01:19.215Z,1014.47
2016-03-20T05:02:19.219Z,1014.42
2016-03-20T05:03:19.221Z,1014.41
2016-03-20T05:04:19.224Z,1014.4
2016-03-20T05:05:19.242Z,1014.41
2016-03-20T05:06:19.244Z,1014.41
2016-03-20T05:07:19.246Z,1014.43
2016-03-20T05:08:19.266Z,1014.41
2016-03-20T05:09:19.252Z,1014.41
2016-03-20T05:10:19.270Z,1014.42
2016-03-20T05:11:19.274Z,1014.43
2016-03-20T05:12:19.276Z,1014.44
2016-03-20T05:13:19.279Z,1014.45
2016-03-20T05:14:19.282Z,1014.37
2016-03-20T05:15:19.300Z,1014.42
2016-03-20T05:16:19.318Z,1014.45
2016-03-20T05:17:19.306Z,1014.46
2016-03-20T05:18:19.308Z,1014.43
2016-03-20T05:19:19.311Z,1014.47
2016-03-20T05:20:19.329Z,1014.46
2016-03-20T05:21:19.332Z,1014.46
2016-03-20T05:22:19.334Z,1014.47
2016-03-20T05:23:19.337Z,1014.47
2016-03-20T05:24:19.356Z,1014.5
2016-03-20T05:25:19.358Z,1014.5
2016-03-20T05:26:19.361Z,1014.5
2016-03-20T05:27:19.363Z,1014.51
2016-03-20T05:28:19.366Z,1014.52
2016-03-20T05:29:19.383Z,1014.52
2016-03-20T05:30:19.387Z,1014.52
2016-03-20T05:31:19.389Z,1014.53
2016-03-20T05:32:19.392Z,1014.53
2016-03-20T05:33:19.411Z,1014.55
2016-03-20T05:34:19.413Z,1014.56
2016-03-20T05:35:19.416Z,1014.58
2016-03-20T05:36:19.419Z,1014.55
2016-03-20T05:37:19.421Z,1014.52
2016-03-20T05:38:19.424Z,1014.53
2016-03-20T05:39:19.443Z,1014.56
2016-03-20T05:40:19.460Z,1014.57
2016-03-20T05:41:19.449Z,1014.53
2016-03-20T05:42:19.451Z,1014.5
2016-03-20T05:43:19.453Z,1014.57
2016-03-20T05:44:19.472Z,1014.53
2016-03-20T05:45:19.474Z,1014.5
2016-03-20T05:46:19.476Z,1014.51
2016-03-20T05:47:19.479Z,1014.47
2016-03-20T05:48:19.498Z,1014.44
2016-03-20T05:49:19.501Z,1014.5
2016-03-20T05:50:19.504Z,1014.51
2016-03-20T05:51:19.506Z,1014.53
2016-03-20T05:52:19.509Z,1014.5
2016-03-20T05:53:19.528Z,1014.52
2016-03-20T05:54:19.530Z,1014.5
2016-03-20T05:55:19.532Z,1014.5
2016-03-20T05:56:19.535Z,1014.5
2016-03-20T05:57:19.538Z,1014.53
2016-03-20T05:58:19.556Z,1014.57
2016-03-20T05:59:19.559Z,1014.57
2016-03-20T06:00:19.561Z,1014.53
2016-03-20T06:01:19.564Z,1014.57
2016-03-20T06:02:19.567Z,1014.57
2016-03-20T06:03:19.585Z,1014.56
2016-03-20T06:04:19.588Z,1014.53
2016-03-20T06:05:19.590Z,1014.54
2016-03-20T06:06:19.594Z,1014.52
2016-03-20T06:07:19.596Z,1014.53
2016-03-20T06:08:19.614Z,1014.51
2016-03-20T06:09:19.617Z,1014.53
2016-03-20T06:10:19.619Z,1014.52
2016-03-20T06:11:19.622Z,1014.53
2016-03-20T06:12:19.624Z,1014.55
2016-03-20T06:13:19.643Z,1014.6
2016-03-20T06:14:19.645Z,1014.57
2016-03-20T06:15:19.649Z,1014.59
2016-03-20T06:16:19.651Z,1014.58
2016-03-20T06:17:19.654Z,1014.65
2016-03-20T06:18:19.673Z,1014.63
2016-03-20T06:19:19.675Z,1014.62
2016-03-20T06:20:19.693Z,1014.6
2016-03-20T06:21:19.681Z,1014.58
2016-03-20T06:22:19.698Z,1014.57
2016-03-20T06:23:19.701Z,1014.57
2016-03-20T06:24:19.703Z,1014.55
2016-03-20T06:25:19.722Z,1014.52
2016-03-20T06:26:19.725Z,1014.53
2016-03-20T06:27:19.712Z,1014.54
2016-03-20T06:28:19.730Z,1014.55
2016-03-20T06:29:19.733Z,1014.52
2016-03-20T06:30:19.736Z,1014.51
2016-03-20T06:31:19.739Z,1014.54
2016-03-20T06:32:19.758Z,1014.54
2016-03-20T06:33:19.760Z,1014.57
2016-03-20T06:34:19.763Z,1014.57
2016-03-20T06:35:19.766Z,1014.58
2016-03-20T06:36:19.783Z,1014.59
2016-03-20T06:37:19.785Z,1014.55
2016-03-20T06:38:19.788Z,1014.55
2016-03-20T06:39:19.791Z,1014.59
2016-03-20T06:40:19.794Z,1014.58
2016-03-20T06:41:19.796Z,1014.6
2016-03-20T06:42:19.815Z,1014.59
2016-03-20T06:43:19.818Z,1014.56
2016-03-20T06:44:19.821Z,1014.62
2016-03-20T06:45:19.823Z,1014.57
2016-03-20T06:46:19.841Z,1014.59
2016-03-20T06:47:19.844Z,1014.61
2016-03-20T06:48:19.847Z,1014.61
2016-03-20T06:49:19.849Z,1014.62
2016-03-20T06:50:19.851Z,1014.65
2016-03-20T06:51:19.871Z,1014.63
2016-03-20T06:52:19.873Z,1014.66
2016-03-20T06:53:19.876Z,1014.67
2016-03-20T06:54:19.879Z,1014.65
2016-03-20T06:55:19.881Z,1014.69
2016-03-20T06:56:19.900Z,1014.7
2016-03-20T06:57:19.903Z,1014.66
2016-03-20T06:58:19.905Z,1014.66
2016-03-20T06:59:19.923Z,1014.67
2016-03-20T07:00:19.911Z,1014.66
2016-03-20T07:01:19.928Z,1014.68
2016-03-20T07:02:19.931Z,1014.68
2016-03-20T07:03:19.934Z,1014.65
2016-03-20T07:04:19.952Z,1014.66
2016-03-20T07:05:19.955Z,1014.61
2016-03-20T07:06:19.958Z,1014.63
2016-03-20T07:07:19.960Z,1014.62
2016-03-20T07:08:19.963Z,1014.6
2016-03-20T07:09:19.966Z,1014.6
2016-03-20T07:10:19.984Z,1014.64
2016-03-20T07:11:19.988Z,1014.6
2016-03-20T07:12:19.990Z,1014.66
2016-03-20T07:13:19.993Z,1014.62
2016-03-20T07:14:19.995Z,1014.64
2016-03-20T07:15:20.013Z,1014.65
2016-03-20T07:16:20.016Z,1014.64
2016-03-20T07:17:20.018Z,1014.66
2016-03-20T07:18:20.021Z,1014.65
2016-03-20T07:19:20.023Z,1014.7
2016-03-20T07:20:20.043Z,1014.63
2016-03-20T07:21:20.045Z,1014.64
2016-03-20T07:22:20.048Z,1014.62
2016-03-20T07:23:20.050Z,1014.63
2016-03-20T07:24:20.068Z,1014.62
2016-03-20T07:25:20.071Z,1014.66
2016-03-20T07:26:20.073Z,1014.7
2016-03-20T07:27:20.076Z,1014.69
2016-03-20T07:28:20.079Z,1014.69
2016-03-20T07:29:20.097Z,1014.59
2016-03-20T07:30:20.100Z,1014.61
2016-03-20T07:31:20.119Z,1014.66
2016-03-20T07:32:20.121Z,1014.63
2016-03-20T07:33:20.109Z,1014.69
2016-03-20T07:34:20.127Z,1014.7
2016-03-20T07:35:20.129Z,1014.69
2016-03-20T07:36:20.133Z,1014.65
2016-03-20T07:37:20.135Z,1014.68
2016-03-20T07:38:20.140Z,1014.65
2016-03-20T07:39:20.159Z,1014.65
2016-03-20T07:40:20.161Z,1014.64
2016-03-20T07:41:20.194Z,1014.62
2016-03-20T07:42:20.167Z,1014.67
2016-03-20T07:43:20.185Z,1014.67
2016-03-20T07:44:20.188Z,1014.63
2016-03-20T07:45:20.191Z,1014.66
2016-03-20T07:46:20.193Z,1014.67
2016-03-20T07:47:20.196Z,1014.67
2016-03-20T07:48:20.199Z,1014.7
2016-03-20T07:49:20.216Z,1014.67
2016-03-20T07:50:20.219Z,1014.68
2016-03-20T07:51:20.222Z,1014.68
2016-03-20T07:52:20.224Z,1014.68
2016-03-20T07:53:20.244Z,1014.67
2016-03-20T07:54:20.246Z,1014.66
2016-03-20T07:55:20.248Z,1014.66
2016-03-20T07:56:20.252Z,1014.64
2016-03-20T07:57:20.254Z,1014.62
2016-03-20T07:58:20.257Z,1014.66
2016-03-20T07:59:20.275Z,1014.66
2016-03-20T08:00:20.278Z,1014.66
2016-03-20T08:01:20.280Z,1014.67
2016-03-20T08:02:20.299Z,1014.65
2016-03-20T08:03:20.301Z,1014.65
2016-03-20T08:04:20.303Z,1014.65
2016-03-20T08:05:20.307Z,1014.64
2016-03-20T08:06:20.309Z,1014.64
2016-03-20T08:07:20.312Z,1014.66
2016-03-20T08:08:20.330Z,1014.63
2016-03-20T08:09:20.333Z,1014.63
2016-03-20T08:10:20.336Z,1014.66
2016-03-20T08:11:20.338Z,1014.64
2016-03-20T08:12:20.357Z,1014.6
2016-03-20T08:13:20.360Z,1014.62
2016-03-20T08:14:20.363Z,1014.63
2016-03-20T08:15:20.365Z,1014.63
2016-03-20T08:16:20.368Z,1014.62
2016-03-20T08:17:20.370Z,1014.64
2016-03-20T08:18:20.388Z,1014.61
2016-03-20T08:19:20.391Z,1014.62
2016-03-20T08:20:20.394Z,1014.61
2016-03-20T08:21:20.412Z,1014.67
2016-03-20T08:22:20.415Z,1014.65
2016-03-20T08:23:20.418Z,1014.65
2016-03-20T08:24:20.420Z,1014.63
2016-03-20T08:25:20.423Z,1014.65
2016-03-20T08:26:20.426Z,1014.85
2016-03-20T08:27:20.443Z,1014.65
2016-03-20T08:28:20.447Z,1014.62
2016-03-20T08:29:20.449Z,1014.64
2016-03-20T08:30:20.468Z,1014.67
2016-03-20T08:31:20.454Z,1014.63
2016-03-20T08:32:20.489Z,1014.64
2016-03-20T08:33:20.476Z,1014.62
2016-03-20T08:34:20.478Z,1014.61
2016-03-20T08:35:20.481Z,1014.66
2016-03-20T08:36:20.500Z,1014.62
2016-03-20T08:37:20.503Z,1014.62
2016-03-20T08:38:20.505Z,1014.56
2016-03-20T08:39:20.508Z,1014.59
2016-03-20T08:40:20.526Z,1014.61
2016-03-20T08:41:20.528Z,1014.63
2016-03-20T08:42:20.531Z,1014.63
2016-03-20T08:43:20.533Z,1014.61
2016-03-20T08:44:20.536Z,1014.62
2016-03-20T08:45:20.555Z,1014.64
2016-03-20T08:46:20.558Z,1014.63
2016-03-20T08:47:20.576Z,1014.64
2016-03-20T08:48:20.563Z,1014.66
2016-03-20T08:49:20.566Z,1014.61
2016-03-20T08:50:20.584Z,1014.63
2016-03-20T08:51:20.587Z,1014.67
2016-03-20T08:52:20.590Z,1014.68
2016-03-20T08:53:20.592Z,1014.76
2016-03-20T08:54:20.595Z,1014.69
2016-03-20T08:55:20.613Z,1014.72
2016-03-20T08:56:20.616Z,1014.7
2016-03-20T08:57:20.618Z,1014.7
2016-03-20T08:58:20.637Z,1014.75
2016-03-20T08:59:20.640Z,1014.7
2016-03-20T09:00:20.642Z,1014.73
2016-03-20T09:01:20.645Z,1014.71
2016-03-20T09:02:20.647Z,1014.71
2016-03-20T09:03:20.666Z,1014.71
2016-03-20T09:04:20.668Z,1014.71
2016-03-20T09:05:20.670Z,1014.7
2016-03-20T09:06:20.673Z,1014.71
2016-03-20T09:07:20.676Z,1014.74
2016-03-20T09:08:20.695Z,1014.67
2016-03-20T09:09:20.697Z,1014.67
2016-03-20T09:10:20.700Z,1014.7
2016-03-20T09:11:20.703Z,1014.72
2016-03-20T09:12:20.706Z,1014.73
2016-03-20T09:13:20.724Z,1014.76
2016-03-20T09:14:20.727Z,1014.74
2016-03-20T09:15:20.730Z,1014.76
2016-03-20T09:16:20.732Z,1014.72
2016-03-20T09:17:20.735Z,1014.74
2016-03-20T09:18:20.753Z,1014.74
2016-03-20T09:19:20.755Z,1014.74
2016-03-20T09:20:20.758Z,1014.77
2016-03-20T09:21:20.761Z,1014.74
2016-03-20T09:22:20.779Z,1014.73
2016-03-20T09:23:20.782Z,1014.75
2016-03-20T09:24:20.785Z,1014.74
2016-03-20T09:25:20.787Z,1014.75
2016-03-20T09:26:20.806Z,1014.74
2016-03-20T09:27:20.809Z,1014.72
2016-03-20T09:28:20.811Z,1014.67
2016-03-20T09:29:20.815Z,1014.72
2016-03-20T09:30:20.817Z,1014.71
2016-03-20T09:31:20.834Z,1014.7
2016-03-20T09:32:20.838Z,1014.69
2016-03-20T09:33:20.840Z,1014.7
2016-03-20T09:34:20.842Z,1014.69
2016-03-20T09:35:20.845Z,1014.68
2016-03-20T09:36:20.864Z,1014.7
2016-03-20T09:37:20.867Z,1014.67
2016-03-20T09:38:20.870Z,1014.67
2016-03-20T09:39:20.872Z,1014.65
2016-03-20T09:40:20.875Z,1014.66
2016-03-20T09:41:20.893Z,1014.66
2016-03-20T09:42:20.895Z,1014.67
2016-03-20T09:43:20.897Z,1014.67
2016-03-20T09:44:20.901Z,1014.68
2016-03-20T09:45:20.903Z,1014.67
2016-03-20T09:46:20.922Z,1014.67
2016-03-20T09:47:20.925Z,1014.7
2016-03-20T09:48:20.927Z,1014.68
2016-03-20T09:49:20.930Z,1014.7
2016-03-20T09:50:20.949Z,1014.68
2016-03-20T09:51:20.952Z,1014.73
2016-03-20T09:52:20.954Z,1014.75
2016-03-20T09:53:20.957Z,1014.7
2016-03-20T09:54:20.960Z,1014.71
2016-03-20T09:55:20.977Z,1014.77
2016-03-20T09:56:20.980Z,1014.73
2016-03-20T09:57:20.983Z,1014.77
2016-03-20T09:58:20.985Z,1014.74
2016-03-20T09:59:20.988Z,1014.74
2016-03-20T10:00:20.990Z,1014.69
2016-03-20T10:01:21.009Z,1014.69
2016-03-20T10:02:21.012Z,1014.71
2016-03-20T10:03:21.015Z,1014.69
2016-03-20T10:04:21.017Z,1014.68
2016-03-20T10:05:21.036Z,1014.65
2016-03-20T10:06:21.039Z,1014.64
2016-03-20T10:07:21.041Z,1014.63
2016-03-20T10:08:21.044Z,1014.62
2016-03-20T10:09:21.046Z,1014.58
2016-03-20T10:10:21.065Z,1014.59
2016-03-20T10:11:21.067Z,1014.56
2016-03-20T10:12:21.070Z,1014.6
2016-03-20T10:13:21.073Z,1014.61
2016-03-20T10:14:21.091Z,1014.56
2016-03-20T10:15:21.094Z,1014.56
2016-03-20T10:16:21.096Z,1014.53
2016-03-20T10:17:21.099Z,1014.57
2016-03-20T10:18:21.102Z,1014.55
2016-03-20T10:19:21.119Z,1014.54
2016-03-20T10:20:21.123Z,1014.56
2016-03-20T10:21:21.125Z,1014.52
2016-03-20T10:22:21.128Z,1014.53
2016-03-20T10:23:21.131Z,1014.52
2016-03-20T10:24:21.149Z,1014.45
2016-03-20T10:25:21.152Z,1014.46
2016-03-20T10:26:21.155Z,1014.46
2016-03-20T10:27:21.157Z,1014.47
2016-03-20T10:28:21.160Z,1014.43
2016-03-20T10:29:21.179Z,1014.42
2016-03-20T10:30:21.182Z,1014.41
2016-03-20T10:31:21.184Z,1014.39
2016-03-20T10:32:21.202Z,1014.39
2016-03-20T10:33:21.205Z,1014.37
2016-03-20T10:34:21.207Z,1014.4
2016-03-20T10:35:21.210Z,1014.37
2016-03-20T10:36:21.212Z,1014.36
2016-03-20T10:37:21.216Z,1014.36
2016-03-20T10:38:21.234Z,1014.35
2016-03-20T10:39:21.236Z,1014.33
2016-03-20T10:40:21.239Z,1014.32
2016-03-20T10:41:21.242Z,1014.29
2016-03-20T10:42:21.260Z,1014.32
2016-03-20T10:43:21.263Z,1014.36
2016-03-20T10:44:21.266Z,1014.33
2016-03-20T10:45:21.269Z,1014.31
2016-03-20T10:46:21.286Z,1014.31
2016-03-20T10:47:21.289Z,1014.24
2016-03-20T10:48:21.292Z,1014.25
2016-03-20T10:49:21.294Z,1014.26
2016-03-20T10:50:21.297Z,1014.29
2016-03-20T10:51:21.316Z,1014.33
2016-03-20T10:52:21.318Z,1014.29
2016-03-20T10:53:21.322Z,1014.27
2016-03-20T10:54:21.339Z,1014.28
2016-03-20T10:55:21.341Z,1014.28
2016-03-20T10:56:21.344Z,1014.26
2016-03-20T10:57:21.347Z,1014.26
2016-03-20T10:58:21.349Z,1014.25
2016-03-20T10:59:21.352Z,1014.27
2016-03-20T11:00:21.371Z,1014.25
2016-03-20T11:01:21.374Z,1014.25
2016-03-20T11:02:21.376Z,1014.21
2016-03-20T11:03:21.379Z,1014.21
2016-03-20T11:04:21.382Z,1014.24
2016-03-20T11:05:21.400Z,1014.25
2016-03-20T11:06:21.403Z,1014.23
2016-03-20T11:07:21.405Z,1014.24
2016-03-20T11:08:21.423Z,1014.22
2016-03-20T11:09:21.427Z,1014.19
2016-03-20T11:10:21.429Z,1014.18
2016-03-20T11:11:21.431Z,1014.13
2016-03-20T11:12:21.450Z,1014.12
2016-03-20T11:13:21.453Z,1014.12
2016-03-20T11:14:21.455Z,1014.09
2016-03-20T11:15:21.458Z,1014.07
2016-03-20T11:16:21.461Z,1014.04
2016-03-20T11:17:21.480Z,1014.05
2016-03-20T11:18:21.482Z,1014
2016-03-20T11:19:21.485Z,1014.02
2016-03-20T11:20:21.488Z,1014.05
2016-03-20T11:21:21.505Z,1014.03
2016-03-20T11:22:21.508Z,1014.02
2016-03-20T11:23:21.511Z,1013.97
2016-03-20T11:24:21.513Z,1013.97
2016-03-20T11:25:21.533Z,1013.91
2016-03-20T11:26:21.535Z,1013.9
2016-03-20T11:27:21.538Z,1013.9
2016-03-20T11:28:21.540Z,1013.86
2016-03-20T11:29:21.558Z,1013.85
2016-03-20T11:30:21.561Z,1013.83
2016-03-20T11:31:21.563Z,1013.78
2016-03-20T11:32:21.566Z,1013.76
2016-03-20T11:33:21.569Z,1013.68
2016-03-20T11:34:21.588Z,1013.7
2016-03-20T11:35:21.590Z,1013.71
2016-03-20T11:36:21.592Z,1013.74
2016-03-20T11:37:21.596Z,1013.73
2016-03-20T11:38:21.614Z,1013.73
2016-03-20T11:39:21.616Z,1013.77
2016-03-20T11:40:21.619Z,1013.76
2016-03-20T11:41:21.622Z,1013.79
2016-03-20T11:42:21.640Z,1013.75
2016-03-20T11:43:21.643Z,1013.74
2016-03-20T11:44:21.646Z,1013.75
2016-03-20T11:45:21.648Z,1013.73
2016-03-20T11:46:21.682Z,1013.76
2016-03-20T11:47:21.669Z,1013.73
2016-03-20T11:48:21.672Z,1013.75
2016-03-20T11:49:21.706Z,1013.77
2016-03-20T11:50:21.693Z,1013.79
2016-03-20T11:51:21.696Z,1013.76
2016-03-20T11:52:21.699Z,1013.78
2016-03-20T11:53:21.701Z,1013.75
2016-03-20T11:54:21.719Z,1013.74
2016-03-20T11:55:21.721Z,1013.77
2016-03-20T11:56:21.724Z,1013.75
2016-03-20T11:57:21.727Z,1013.71
2016-03-20T11:58:21.730Z,1013.68
2016-03-20T11:59:21.749Z,1013.72
2016-03-20T12:00:21.752Z,1013.71
2016-03-20T12:01:21.769Z,1013.65
2016-03-20T12:02:21.757Z,1013.63
2016-03-20T12:03:21.760Z,1013.59
2016-03-20T12:04:21.777Z,1013.59
2016-03-20T12:05:21.779Z,1013.55
2016-03-20T12:06:21.782Z,1013.55
2016-03-20T12:07:21.801Z,1013.53
2016-03-20T12:08:21.803Z,1013.5